sensor_id;sensor_type;location;lat;lon;timestamp;temperature;humidity
21244;DHT22;10780;50.942;4.028;2022-07-11T00:01:43;18.60;99.90
21244;DHT22;10780;50.942;4.028;2022-07-11T00:04:08;18.50;99.90
21244;DHT22;10780;50.942;4.028;2022-07-11T00:06:34;18.40;99.90
21244;DHT22;10780;50.942;4.028;2022-07-11T00:09:00;18.40;99.90
21244;DHT22;10780;50.942;4.028;2022-07-11T00:11:25;18.30;99.90
21244;DHT22;10780;50.942;4.028;2022-07-11T00:13:51;18.40;99.90
21244;DHT22;10780;50.942;4.028;2022-07-11T00:16:17;18.40;99.90
21244;DHT22;10780;50.942;4.028;2022-07-11T00:18:42;18.40;99.90
21244;DHT22;10780;50.942;4.028;2022-07-11T00:21:08;18.40;99.90
21244;DHT22;10780;50.942;4.028;2022-07-11T00:23:33;18.40;99.90
21244;DHT22;10780;50.942;4.028;2022-07-11T00:25:59;18.40;99.90
21244;DHT22;10780;50.942;4.028;2022-07-11T00:28:25;18.40;99.90
21244;DHT22;10780;50.942;4.028;2022-07-11T00:30:50;18.40;99.90
21244;DHT22;10780;50.942;4.028;2022-07-11T00:33:18;18.50;99.90
21244;DHT22;10780;50.942;4.028;2022-07-11T00:35:44;18.60;99.90
21244;DHT22;10780;50.942;4.028;2022-07-11T00:38:09;18.60;99.90
21244;DHT22;10780;50.942;4.028;2022-07-11T00:40:35;18.60;99.90
21244;DHT22;10780;50.942;4.028;2022-07-11T00:43:03;18.60;99.90
21244;DHT22;10780;50.942;4.028;2022-07-11T00:45:29;18.40;99.90
21244;DHT22;10780;50.942;4.028;2022-07-11T00:47:54;18.30;99.90
21244;DHT22;10780;50.942;4.028;2022-07-11T00:50:22;18.30;99.90
21244;DHT22;10780;50.942;4.028;2022-07-11T00:52:49;18.40;99.90
21244;DHT22;10780;50.942;4.028;2022-07-11T00:55:16;18.40;99.90
21244;DHT22;10780;50.942;4.028;2022-07-11T00:57:42;18.20;99.90
21244;DHT22;10780;50.942;4.028;2022-07-11T01:00:09;18.10;99.90
21244;DHT22;10780;50.942;4.028;2022-07-11T01:02:35;18.00;99.90
21244;DHT22;10780;50.942;4.028;2022-07-11T01:05:00;17.90;99.90
21244;DHT22;10780;50.942;4.028;2022-07-11T01:07:26;17.90;99.90
21244;DHT22;10780;50.942;4.028;2022-07-11T01:09:52;17.90;99.90
21244;DHT22;10780;50.942;4.028;2022-07-11T01:12:17;17.90;99.90
21244;DHT22;10780;50.942;4.028;2022-07-11T01:14:53;17.80;99.90
21244;DHT22;10780;50.942;4.028;2022-07-11T01:17:19;17.90;99.90
21244;DHT22;10780;50.942;4.028;2022-07-11T01:19:45;17.90;99.90
21244;DHT22;10780;50.942;4.028;2022-07-11T01:22:14;18.10;99.90
21244;DHT22;10780;50.942;4.028;2022-07-11T01:24:41;18.00;99.90
21244;DHT22;10780;50.942;4.028;2022-07-11T01:27:07;18.10;99.90
21244;DHT22;10780;50.942;4.028;2022-07-11T01:29:34;18.00;99.90
21244;DHT22;10780;50.942;4.028;2022-07-11T01:31:59;17.90;99.90
21244;DHT22;10780;50.942;4.028;2022-07-11T01:34:25;17.90;99.90
21244;DHT22;10780;50.942;4.028;2022-07-11T01:36:50;17.70;99.90
21244;DHT22;10780;50.942;4.028;2022-07-11T01:39:16;17.70;99.90
21244;DHT22;10780;50.942;4.028;2022-07-11T01:41:42;17.80;99.90
21244;DHT22;10780;50.942;4.028;2022-07-11T01:44:07;17.70;99.90
21244;DHT22;10780;50.942;4.028;2022-07-11T01:46:33;17.60;99.90
21244;DHT22;10780;50.942;4.028;2022-07-11T01:48:58;17.50;99.90
21244;DHT22;10780;50.942;4.028;2022-07-11T01:51:24;17.40;99.90
21244;DHT22;10780;50.942;4.028;2022-07-11T01:53:50;17.30;99.90
21244;DHT22;10780;50.942;4.028;2022-07-11T01:56:17;17.30;99.90
21244;DHT22;10780;50.942;4.028;2022-07-11T01:58:43;17.30;99.90
21244;DHT22;10780;50.942;4.028;2022-07-11T02:01:08;17.40;99.90
21244;DHT22;10780;50.942;4.028;2022-07-11T02:03:34;17.40;99.90
21244;DHT22;10780;50.942;4.028;2022-07-11T02:06:00;17.60;99.90
21244;DHT22;10780;50.942;4.028;2022-07-11T02:08:26;17.60;99.90
21244;DHT22;10780;50.942;4.028;2022-07-11T02:10:52;17.60;99.90
21244;DHT22;10780;50.942;4.028;2022-07-11T02:13:20;17.40;99.90
21244;DHT22;10780;50.942;4.028;2022-07-11T02:15:46;17.40;99.90
21244;DHT22;10780;50.942;4.028;2022-07-11T02:18:12;17.30;99.90
21244;DHT22;10780;50.942;4.028;2022-07-11T02:20:40;17.40;99.90
21244;DHT22;10780;50.942;4.028;2022-07-11T02:23:06;17.50;99.90
21244;DHT22;10780;50.942;4.028;2022-07-11T02:25:32;17.40;99.90
21244;DHT22;10780;50.942;4.028;2022-07-11T02:28:00;17.50;99.90
21244;DHT22;10780;50.942;4.028;2022-07-11T02:30:26;17.60;99.90
21244;DHT22;10780;50.942;4.028;2022-07-11T02:32:52;17.60;99.90
21244;DHT22;10780;50.942;4.028;2022-07-11T02:35:18;17.60;99.90
21244;DHT22;10780;50.942;4.028;2022-07-11T02:37:44;17.50;99.90
21244;DHT22;10780;50.942;4.028;2022-07-11T02:40:11;17.40;99.90
21244;DHT22;10780;50.942;4.028;2022-07-11T02:42:36;17.30;99.90
21244;DHT22;10780;50.942;4.028;2022-07-11T02:45:04;17.10;99.90
21244;DHT22;10780;50.942;4.028;2022-07-11T02:47:29;16.90;99.90
21244;DHT22;10780;50.942;4.028;2022-07-11T02:49:55;16.90;99.90
21244;DHT22;10780;50.942;4.028;2022-07-11T02:52:20;16.90;99.90
21244;DHT22;10780;50.942;4.028;2022-07-11T02:54:46;17.00;99.90
21244;DHT22;10780;50.942;4.028;2022-07-11T02:57:12;17.00;99.90
21244;DHT22;10780;50.942;4.028;2022-07-11T02:59:37;16.90;99.90
21244;DHT22;10780;50.942;4.028;2022-07-11T03:02:03;17.00;99.90
21244;DHT22;10780;50.942;4.028;2022-07-11T03:04:31;16.90;99.90
21244;DHT22;10780;50.942;4.028;2022-07-11T03:06:57;17.00;99.90
21244;DHT22;10780;50.942;4.028;2022-07-11T03:09:23;17.00;99.90
21244;DHT22;10780;50.942;4.028;2022-07-11T03:11:49;16.90;99.90
21244;DHT22;10780;50.942;4.028;2022-07-11T03:14:16;16.80;99.90
21244;DHT22;10780;50.942;4.028;2022-07-11T03:16:41;16.70;99.90
21244;DHT22;10780;50.942;4.028;2022-07-11T03:19:07;16.80;99.90
21244;DHT22;10780;50.942;4.028;2022-07-11T03:21:32;16.70;99.90
21244;DHT22;10780;50.942;4.028;2022-07-11T03:23:58;16.90;99.90
21244;DHT22;10780;50.942;4.028;2022-07-11T03:26:24;16.90;99.90
21244;DHT22;10780;50.942;4.028;2022-07-11T03:28:49;16.80;99.90
21244;DHT22;10780;50.942;4.028;2022-07-11T03:31:15;16.90;99.90
21244;DHT22;10780;50.942;4.028;2022-07-11T03:33:40;16.90;99.90
21244;DHT22;10780;50.942;4.028;2022-07-11T03:36:06;16.80;99.90
21244;DHT22;10780;50.942;4.028;2022-07-11T03:38:32;16.90;99.90
21244;DHT22;10780;50.942;4.028;2022-07-11T03:40:57;16.80;99.90
21244;DHT22;10780;50.942;4.028;2022-07-11T03:43:23;16.80;99.90
21244;DHT22;10780;50.942;4.028;2022-07-11T03:45:48;16.70;99.90
21244;DHT22;10780;50.942;4.028;2022-07-11T03:48:14;16.70;99.90
21244;DHT22;10780;50.942;4.028;2022-07-11T03:50:40;16.70;99.90
21244;DHT22;10780;50.942;4.028;2022-07-11T03:53:05;16.70;99.90
21244;DHT22;10780;50.942;4.028;2022-07-11T03:55:31;16.90;99.90
21244;DHT22;10780;50.942;4.028;2022-07-11T03:57:58;17.10;99.90
21244;DHT22;10780;50.942;4.028;2022-07-11T04:00:23;17.10;99.90
21244;DHT22;10780;50.942;4.028;2022-07-11T04:02:49;17.20;99.90
21244;DHT22;10780;50.942;4.028;2022-07-11T04:05:15;17.00;99.90
21244;DHT22;10780;50.942;4.028;2022-07-11T04:07:41;17.00;99.90
21244;DHT22;10780;50.942;4.028;2022-07-11T04:10:08;17.10;99.90
21244;DHT22;10780;50.942;4.028;2022-07-11T04:12:34;17.30;99.90
21244;DHT22;10780;50.942;4.028;2022-07-11T04:15:00;17.30;99.90
21244;DHT22;10780;50.942;4.028;2022-07-11T04:17:25;17.30;99.90
21244;DHT22;10780;50.942;4.028;2022-07-11T04:19:52;17.20;99.90
21244;DHT22;10780;50.942;4.028;2022-07-11T04:22:18;17.10;99.90
21244;DHT22;10780;50.942;4.028;2022-07-11T04:24:44;17.10;99.90
21244;DHT22;10780;50.942;4.028;2022-07-11T04:27:09;17.10;99.90
21244;DHT22;10780;50.942;4.028;2022-07-11T04:29:35;17.10;99.90
21244;DHT22;10780;50.942;4.028;2022-07-11T04:32:01;17.10;99.90
21244;DHT22;10780;50.942;4.028;2022-07-11T04:34:26;17.30;99.90
21244;DHT22;10780;50.942;4.028;2022-07-11T04:36:52;17.20;99.90
21244;DHT22;10780;50.942;4.028;2022-07-11T04:39:17;17.00;99.90
21244;DHT22;10780;50.942;4.028;2022-07-11T04:41:46;16.80;99.90
21244;DHT22;10780;50.942;4.028;2022-07-11T04:44:11;16.60;99.90
21244;DHT22;10780;50.942;4.028;2022-07-11T04:46:38;16.60;99.90
21244;DHT22;10780;50.942;4.028;2022-07-11T04:49:03;16.70;99.90
21244;DHT22;10780;50.942;4.028;2022-07-11T04:51:29;17.00;99.90
21244;DHT22;10780;50.942;4.028;2022-07-11T04:53:54;17.10;99.90
21244;DHT22;10780;50.942;4.028;2022-07-11T04:56:20;17.20;99.90
21244;DHT22;10780;50.942;4.028;2022-07-11T04:58:46;17.20;99.90
21244;DHT22;10780;50.942;4.028;2022-07-11T05:01:11;17.30;99.90
21244;DHT22;10780;50.942;4.028;2022-07-11T05:03:37;17.50;99.90
21244;DHT22;10780;50.942;4.028;2022-07-11T05:06:04;17.30;99.90
21244;DHT22;10780;50.942;4.028;2022-07-11T05:08:30;17.30;99.90
21244;DHT22;10780;50.942;4.028;2022-07-11T05:10:56;17.40;99.90
21244;DHT22;10780;50.942;4.028;2022-07-11T05:13:22;17.30;99.90
21244;DHT22;10780;50.942;4.028;2022-07-11T05:15:47;17.10;99.90
21244;DHT22;10780;50.942;4.028;2022-07-11T05:18:13;17.10;99.90
21244;DHT22;10780;50.942;4.028;2022-07-11T05:20:39;17.20;99.90
21244;DHT22;10780;50.942;4.028;2022-07-11T05:23:04;17.30;99.90
21244;DHT22;10780;50.942;4.028;2022-07-11T05:25:31;17.30;99.90
21244;DHT22;10780;50.942;4.028;2022-07-11T05:27:56;17.40;99.90
21244;DHT22;10780;50.942;4.028;2022-07-11T05:30:22;17.50;99.90
21244;DHT22;10780;50.942;4.028;2022-07-11T05:32:47;17.50;99.90
21244;DHT22;10780;50.942;4.028;2022-07-11T05:35:13;17.40;99.90
21244;DHT22;10780;50.942;4.028;2022-07-11T05:37:39;17.50;99.90
21244;DHT22;10780;50.942;4.028;2022-07-11T05:40:05;17.50;99.90
21244;DHT22;10780;50.942;4.028;2022-07-11T05:42:34;17.60;99.90
21244;DHT22;10780;50.942;4.028;2022-07-11T05:44:59;17.80;99.90
21244;DHT22;10780;50.942;4.028;2022-07-11T05:47:25;18.00;99.90
21244;DHT22;10780;50.942;4.028;2022-07-11T05:49:51;18.00;99.90
21244;DHT22;10780;50.942;4.028;2022-07-11T05:52:17;18.20;99.90
21244;DHT22;10780;50.942;4.028;2022-07-11T05:54:42;18.30;99.90
21244;DHT22;10780;50.942;4.028;2022-07-11T05:57:08;18.30;99.90
21244;DHT22;10780;50.942;4.028;2022-07-11T05:59:34;18.40;99.90
21244;DHT22;10780;50.942;4.028;2022-07-11T06:02:02;18.50;99.90
21244;DHT22;10780;50.942;4.028;2022-07-11T06:04:27;18.50;99.90
21244;DHT22;10780;50.942;4.028;2022-07-11T06:06:53;18.60;99.90
21244;DHT22;10780;50.942;4.028;2022-07-11T06:09:19;18.80;99.90
21244;DHT22;10780;50.942;4.028;2022-07-11T06:11:44;19.10;99.90
21244;DHT22;10780;50.942;4.028;2022-07-11T06:14:10;19.50;99.90
21244;DHT22;10780;50.942;4.028;2022-07-11T06:16:35;19.70;99.90
21244;DHT22;10780;50.942;4.028;2022-07-11T06:19:01;19.80;99.90
21244;DHT22;10780;50.942;4.028;2022-07-11T06:21:27;19.80;99.90
21244;DHT22;10780;50.942;4.028;2022-07-11T06:23:54;20.00;99.90
21244;DHT22;10780;50.942;4.028;2022-07-11T06:26:22;20.20;99.90
21244;DHT22;10780;50.942;4.028;2022-07-11T06:28:48;20.50;99.90
21244;DHT22;10780;50.942;4.028;2022-07-11T06:31:13;20.60;99.90
21244;DHT22;10780;50.942;4.028;2022-07-11T06:33:39;20.90;99.90
21244;DHT22;10780;50.942;4.028;2022-07-11T06:36:05;20.90;99.90
21244;DHT22;10780;50.942;4.028;2022-07-11T06:38:32;20.70;99.90
21244;DHT22;10780;50.942;4.028;2022-07-11T06:40:58;20.40;99.90
21244;DHT22;10780;50.942;4.028;2022-07-11T06:43:24;20.40;99.90
21244;DHT22;10780;50.942;4.028;2022-07-11T06:45:50;20.40;99.90
21244;DHT22;10780;50.942;4.028;2022-07-11T06:48:16;20.30;99.90
21244;DHT22;10780;50.942;4.028;2022-07-11T06:50:42;20.10;99.90
21244;DHT22;10780;50.942;4.028;2022-07-11T06:53:08;20.00;99.90
21244;DHT22;10780;50.942;4.028;2022-07-11T06:55:34;20.10;99.90
21244;DHT22;10780;50.942;4.028;2022-07-11T06:58:00;19.90;99.90
21244;DHT22;10780;50.942;4.028;2022-07-11T07:00:26;20.00;99.90
21244;DHT22;10780;50.942;4.028;2022-07-11T07:02:56;20.00;99.90
21244;DHT22;10780;50.942;4.028;2022-07-11T07:05:25;20.00;99.90
21244;DHT22;10780;50.942;4.028;2022-07-11T07:07:52;20.10;99.90
21244;DHT22;10780;50.942;4.028;2022-07-11T07:10:18;20.40;99.90
21244;DHT22;10780;50.942;4.028;2022-07-11T07:12:44;20.40;99.90
21244;DHT22;10780;50.942;4.028;2022-07-11T07:15:11;20.50;99.90
21244;DHT22;10780;50.942;4.028;2022-07-11T07:17:38;20.40;99.90
21244;DHT22;10780;50.942;4.028;2022-07-11T07:20:06;20.50;99.90
21244;DHT22;10780;50.942;4.028;2022-07-11T07:22:34;20.40;99.90
21244;DHT22;10780;50.942;4.028;2022-07-11T07:25:00;20.40;99.90
21244;DHT22;10780;50.942;4.028;2022-07-11T07:27:26;20.60;99.90
21244;DHT22;10780;50.942;4.028;2022-07-11T07:29:52;20.70;99.90
21244;DHT22;10780;50.942;4.028;2022-07-11T07:32:17;20.90;99.90
21244;DHT22;10780;50.942;4.028;2022-07-11T07:34:43;21.00;99.90
21244;DHT22;10780;50.942;4.028;2022-07-11T07:37:09;21.30;99.90
21244;DHT22;10780;50.942;4.028;2022-07-11T07:39:34;21.30;99.90
21244;DHT22;10780;50.942;4.028;2022-07-11T07:42:00;21.50;99.90
21244;DHT22;10780;50.942;4.028;2022-07-11T07:44:25;21.30;99.90
21244;DHT22;10780;50.942;4.028;2022-07-11T07:46:52;21.30;99.90
21244;DHT22;10780;50.942;4.028;2022-07-11T07:49:17;21.20;99.90
21244;DHT22;10780;50.942;4.028;2022-07-11T07:51:43;21.30;99.90
21244;DHT22;10780;50.942;4.028;2022-07-11T07:54:09;21.40;99.90
21244;DHT22;10780;50.942;4.028;2022-07-11T07:56:34;21.50;99.90
21244;DHT22;10780;50.942;4.028;2022-07-11T07:59:00;21.50;99.90
21244;DHT22;10780;50.942;4.028;2022-07-11T08:01:25;21.60;99.90
21244;DHT22;10780;50.942;4.028;2022-07-11T08:04:03;21.50;99.90
21244;DHT22;10780;50.942;4.028;2022-07-11T08:06:29;21.40;99.90
21244;DHT22;10780;50.942;4.028;2022-07-11T08:08:54;21.60;99.90
21244;DHT22;10780;50.942;4.028;2022-07-11T08:11:20;21.70;99.90
21244;DHT22;10780;50.942;4.028;2022-07-11T08:13:46;21.80;99.90
21244;DHT22;10780;50.942;4.028;2022-07-11T08:16:11;21.90;99.90
21244;DHT22;10780;50.942;4.028;2022-07-11T08:18:37;22.10;99.90
21244;DHT22;10780;50.942;4.028;2022-07-11T08:21:03;22.40;99.90
21244;DHT22;10780;50.942;4.028;2022-07-11T08:23:28;22.60;99.90
21244;DHT22;10780;50.942;4.028;2022-07-11T08:25:54;22.40;99.90
21244;DHT22;10780;50.942;4.028;2022-07-11T08:28:20;22.20;99.90
21244;DHT22;10780;50.942;4.028;2022-07-11T08:30:45;22.20;99.90
21244;DHT22;10780;50.942;4.028;2022-07-11T08:33:12;22.20;99.90
21244;DHT22;10780;50.942;4.028;2022-07-11T08:35:38;22.30;99.90
21244;DHT22;10780;50.942;4.028;2022-07-11T08:38:04;22.40;99.90
21244;DHT22;10780;50.942;4.028;2022-07-11T08:40:29;22.20;99.90
21244;DHT22;10780;50.942;4.028;2022-07-11T08:42:56;22.20;99.90
21244;DHT22;10780;50.942;4.028;2022-07-11T08:45:29;22.40;99.90
21244;DHT22;10780;50.942;4.028;2022-07-11T08:47:56;22.50;99.90
21244;DHT22;10780;50.942;4.028;2022-07-11T08:50:23;22.70;99.90
21244;DHT22;10780;50.942;4.028;2022-07-11T08:52:49;22.70;99.90
21244;DHT22;10780;50.942;4.028;2022-07-11T08:55:14;22.40;99.90
21244;DHT22;10780;50.942;4.028;2022-07-11T08:57:40;22.20;99.90
21244;DHT22;10780;50.942;4.028;2022-07-11T09:00:08;22.20;99.90
21244;DHT22;10780;50.942;4.028;2022-07-11T09:02:37;22.00;99.90
21244;DHT22;10780;50.942;4.028;2022-07-11T09:05:06;22.10;99.90
21244;DHT22;10780;50.942;4.028;2022-07-11T09:07:33;22.20;99.90
21244;DHT22;10780;50.942;4.028;2022-07-11T09:09:59;22.50;99.90
21244;DHT22;10780;50.942;4.028;2022-07-11T09:12:25;22.70;99.90
21244;DHT22;10780;50.942;4.028;2022-07-11T09:14:51;22.90;99.90
21244;DHT22;10780;50.942;4.028;2022-07-11T09:17:29;23.00;99.90
21244;DHT22;10780;50.942;4.028;2022-07-11T09:19:58;23.10;99.90
21244;DHT22;10780;50.942;4.028;2022-07-11T09:22:24;22.80;99.90
21244;DHT22;10780;50.942;4.028;2022-07-11T09:25:10;22.70;99.90
21244;DHT22;10780;50.942;4.028;2022-07-11T09:30:26;22.80;99.90
21244;DHT22;10780;50.942;4.028;2022-07-11T09:35:23;22.70;99.90
21244;DHT22;10780;50.942;4.028;2022-07-11T09:37:51;22.70;99.90
21244;DHT22;10780;50.942;4.028;2022-07-11T09:40:17;22.90;99.90
21244;DHT22;10780;50.942;4.028;2022-07-11T09:42:55;22.80;99.90
21244;DHT22;10780;50.942;4.028;2022-07-11T09:45:31;22.50;99.90
21244;DHT22;10780;50.942;4.028;2022-07-11T09:48:00;22.40;99.90
21244;DHT22;10780;50.942;4.028;2022-07-11T09:50:30;22.60;99.90
21244;DHT22;10780;50.942;4.028;2022-07-11T09:53:06;22.90;99.90
21244;DHT22;10780;50.942;4.028;2022-07-11T09:55:43;23.20;99.90
21244;DHT22;10780;50.942;4.028;2022-07-11T09:58:13;23.50;99.90
21244;DHT22;10780;50.942;4.028;2022-07-11T10:00:44;23.40;99.90
21244;DHT22;10780;50.942;4.028;2022-07-11T10:03:11;23.50;99.90
21244;DHT22;10780;50.942;4.028;2022-07-11T10:05:37;23.60;99.90
21244;DHT22;10780;50.942;4.028;2022-07-11T10:08:04;23.60;99.90
21244;DHT22;10780;50.942;4.028;2022-07-11T10:10:32;23.50;99.90
21244;DHT22;10780;50.942;4.028;2022-07-11T10:12:59;23.60;99.90
21244;DHT22;10780;50.942;4.028;2022-07-11T10:15:31;23.70;99.90
21244;DHT22;10780;50.942;4.028;2022-07-11T10:28:59;24.30;99.90
21244;DHT22;10780;50.942;4.028;2022-07-11T10:31:26;24.40;99.90
21244;DHT22;10780;50.942;4.028;2022-07-11T10:34:09;24.20;99.90
21244;DHT22;10780;50.942;4.028;2022-07-11T10:36:45;24.00;99.90
21244;DHT22;10780;50.942;4.028;2022-07-11T10:39:23;23.80;99.90
21244;DHT22;10780;50.942;4.028;2022-07-11T10:41:57;23.70;99.90
21244;DHT22;10780;50.942;4.028;2022-07-11T10:44:23;23.70;99.90
21244;DHT22;10780;50.942;4.028;2022-07-11T10:46:49;23.70;99.90
21244;DHT22;10780;50.942;4.028;2022-07-11T10:49:32;23.80;99.90
21244;DHT22;10780;50.942;4.028;2022-07-11T10:52:06;23.80;99.90
21244;DHT22;10780;50.942;4.028;2022-07-11T11:00:00;23.80;99.90
21244;DHT22;10780;50.942;4.028;2022-07-11T11:02:27;24.00;99.90
21244;DHT22;10780;50.942;4.028;2022-07-11T11:04:59;24.20;99.90
21244;DHT22;10780;50.942;4.028;2022-07-11T11:07:40;24.40;99.90
21244;DHT22;10780;50.942;4.028;2022-07-11T11:15:49;25.00;99.90
21244;DHT22;10780;50.942;4.028;2022-07-11T11:23:26;25.30;99.90
21244;DHT22;10780;50.942;4.028;2022-07-11T11:25:53;24.90;99.90
21244;DHT22;10780;50.942;4.028;2022-07-11T11:28:22;24.80;99.90
21244;DHT22;10780;50.942;4.028;2022-07-11T11:30:59;24.90;99.90
21244;DHT22;10780;50.942;4.028;2022-07-11T11:33:26;24.90;99.90
21244;DHT22;10780;50.942;4.028;2022-07-11T11:38:28;24.80;99.90
21244;DHT22;10780;50.942;4.028;2022-07-11T11:40:53;24.90;99.90
21244;DHT22;10780;50.942;4.028;2022-07-11T11:43:22;24.70;99.90
21244;DHT22;10780;50.942;4.028;2022-07-11T11:45:52;24.90;99.90
21244;DHT22;10780;50.942;4.028;2022-07-11T11:48:35;25.10;99.90
21244;DHT22;10780;50.942;4.028;2022-07-11T11:51:02;25.50;99.90
21244;DHT22;10780;50.942;4.028;2022-07-11T11:53:28;25.70;99.90
21244;DHT22;10780;50.942;4.028;2022-07-11T11:55:56;25.60;99.90
21244;DHT22;10780;50.942;4.028;2022-07-11T11:58:24;25.80;99.90
21244;DHT22;10780;50.942;4.028;2022-07-11T12:00:54;26.20;99.90
21244;DHT22;10780;50.942;4.028;2022-07-11T12:03:20;26.30;99.90
21244;DHT22;10780;50.942;4.028;2022-07-11T12:05:56;26.40;99.90
21244;DHT22;10780;50.942;4.028;2022-07-11T12:08:26;26.10;99.90
21244;DHT22;10780;50.942;4.028;2022-07-11T12:10:54;26.20;99.90
21244;DHT22;10780;50.942;4.028;2022-07-11T12:13:20;26.30;99.90
21244;DHT22;10780;50.942;4.028;2022-07-11T12:15:46;26.30;99.90
21244;DHT22;10780;50.942;4.028;2022-07-11T12:18:30;26.40;99.90
21244;DHT22;10780;50.942;4.028;2022-07-11T12:20:55;26.40;99.90
21244;DHT22;10780;50.942;4.028;2022-07-11T12:23:22;26.20;99.90
21244;DHT22;10780;50.942;4.028;2022-07-11T12:25:51;26.20;99.90
21244;DHT22;10780;50.942;4.028;2022-07-11T12:28:17;26.40;99.90
21244;DHT22;10780;50.942;4.028;2022-07-11T12:30:43;26.40;99.90
21244;DHT22;10780;50.942;4.028;2022-07-11T12:33:11;26.60;99.90
21244;DHT22;10780;50.942;4.028;2022-07-11T12:35:52;26.70;99.90
21244;DHT22;10780;50.942;4.028;2022-07-11T12:38:19;26.90;99.90
21244;DHT22;10780;50.942;4.028;2022-07-11T12:41:05;27.10;99.90
21244;DHT22;10780;50.942;4.028;2022-07-11T12:43:41;27.10;99.90
21244;DHT22;10780;50.942;4.028;2022-07-11T12:46:27;26.40;99.90
21244;DHT22;10780;50.942;4.028;2022-07-11T12:48:53;26.20;99.90
21244;DHT22;10780;50.942;4.028;2022-07-11T12:54:09;26.30;99.90
21244;DHT22;10780;50.942;4.028;2022-07-11T12:56:35;26.60;99.90
21244;DHT22;10780;50.942;4.028;2022-07-11T12:59:03;26.70;99.90
21244;DHT22;10780;50.942;4.028;2022-07-11T13:01:30;26.70;99.90
21244;DHT22;10780;50.942;4.028;2022-07-11T13:03:57;26.70;99.90
21244;DHT22;10780;50.942;4.028;2022-07-11T13:06:22;26.80;99.90
21244;DHT22;10780;50.942;4.028;2022-07-11T13:09:12;26.80;99.90
21244;DHT22;10780;50.942;4.028;2022-07-11T13:11:38;26.40;99.90
21244;DHT22;10780;50.942;4.028;2022-07-11T13:14:04;26.50;99.90
21244;DHT22;10780;50.942;4.028;2022-07-11T13:16:49;26.40;99.90
21244;DHT22;10780;50.942;4.028;2022-07-11T13:19:15;26.90;99.90
21244;DHT22;10780;50.942;4.028;2022-07-11T13:21:41;27.30;99.90
21244;DHT22;10780;50.942;4.028;2022-07-11T13:24:06;27.30;99.90
21244;DHT22;10780;50.942;4.028;2022-07-11T13:26:32;27.20;99.90
21244;DHT22;10780;50.942;4.028;2022-07-11T13:28:58;27.10;99.90
21244;DHT22;10780;50.942;4.028;2022-07-11T13:31:25;27.10;99.90
21244;DHT22;10780;50.942;4.028;2022-07-11T13:33:50;27.20;99.90
21244;DHT22;10780;50.942;4.028;2022-07-11T13:36:16;27.10;99.90
21244;DHT22;10780;50.942;4.028;2022-07-11T13:38:41;27.10;99.90
21244;DHT22;10780;50.942;4.028;2022-07-11T13:41:07;27.20;99.90
21244;DHT22;10780;50.942;4.028;2022-07-11T13:43:34;27.50;99.90
21244;DHT22;10780;50.942;4.028;2022-07-11T13:46:00;27.70;99.90
21244;DHT22;10780;50.942;4.028;2022-07-11T13:48:26;27.70;99.90
21244;DHT22;10780;50.942;4.028;2022-07-11T13:50:51;27.80;99.90
21244;DHT22;10780;50.942;4.028;2022-07-11T13:53:17;27.90;99.90
21244;DHT22;10780;50.942;4.028;2022-07-11T13:55:43;27.80;99.90
21244;DHT22;10780;50.942;4.028;2022-07-11T13:58:09;27.90;99.90
21244;DHT22;10780;50.942;4.028;2022-07-11T14:00:51;28.00;99.90
21244;DHT22;10780;50.942;4.028;2022-07-11T14:03:16;28.10;99.90
21244;DHT22;10780;50.942;4.028;2022-07-11T14:05:42;28.00;99.90
21244;DHT22;10780;50.942;4.028;2022-07-11T14:08:08;27.80;99.90
21244;DHT22;10780;50.942;4.028;2022-07-11T14:10:33;28.00;99.90
21244;DHT22;10780;50.942;4.028;2022-07-11T14:12:59;27.80;99.90
21244;DHT22;10780;50.942;4.028;2022-07-11T14:15:25;28.20;99.90
21244;DHT22;10780;50.942;4.028;2022-07-11T14:17:51;28.70;99.90
21244;DHT22;10780;50.942;4.028;2022-07-11T14:20:16;29.20;99.90
21244;DHT22;10780;50.942;4.028;2022-07-11T14:22:42;29.50;99.90
21244;DHT22;10780;50.942;4.028;2022-07-11T14:25:08;31.40;99.90
21244;DHT22;10780;50.942;4.028;2022-07-11T14:27:35;33.00;99.90
21244;DHT22;10780;50.942;4.028;2022-07-11T14:30:06;32.70;99.90
21244;DHT22;10780;50.942;4.028;2022-07-11T14:32:33;33.00;99.90
21244;DHT22;10780;50.942;4.028;2022-07-11T14:34:59;32.50;99.90
21244;DHT22;10780;50.942;4.028;2022-07-11T14:37:25;31.90;99.90
21244;DHT22;10780;50.942;4.028;2022-07-11T14:39:51;31.90;99.90
21244;DHT22;10780;50.942;4.028;2022-07-11T14:42:17;32.90;99.90
21244;DHT22;10780;50.942;4.028;2022-07-11T14:44:43;33.00;99.90
21244;DHT22;10780;50.942;4.028;2022-07-11T14:47:08;33.20;99.90
21244;DHT22;10780;50.942;4.028;2022-07-11T14:49:34;34.30;99.90
21244;DHT22;10780;50.942;4.028;2022-07-11T14:51:59;33.70;99.90
21244;DHT22;10780;50.942;4.028;2022-07-11T14:54:26;35.10;99.90
21244;DHT22;10780;50.942;4.028;2022-07-11T14:56:52;36.30;99.90
21244;DHT22;10780;50.942;4.028;2022-07-11T14:59:17;35.50;99.90
21244;DHT22;10780;50.942;4.028;2022-07-11T15:01:43;33.10;99.90
21244;DHT22;10780;50.942;4.028;2022-07-11T15:04:09;32.40;99.90
21244;DHT22;10780;50.942;4.028;2022-07-11T15:06:35;32.90;99.90
21244;DHT22;10780;50.942;4.028;2022-07-11T15:09:20;33.80;99.90
21244;DHT22;10780;50.942;4.028;2022-07-11T15:12:04;34.20;99.90
21244;DHT22;10780;50.942;4.028;2022-07-11T15:14:50;34.90;99.90
21244;DHT22;10780;50.942;4.028;2022-07-11T15:17:16;34.80;99.90
21244;DHT22;10780;50.942;4.028;2022-07-11T15:19:42;33.50;99.90
21244;DHT22;10780;50.942;4.028;2022-07-11T15:22:07;32.80;99.90
21244;DHT22;10780;50.942;4.028;2022-07-11T15:24:33;32.40;99.90
21244;DHT22;10780;50.942;4.028;2022-07-11T15:26:59;32.20;99.90
21244;DHT22;10780;50.942;4.028;2022-07-11T15:29:25;32.40;99.90
21244;DHT22;10780;50.942;4.028;2022-07-11T15:31:51;33.20;99.90
21244;DHT22;10780;50.942;4.028;2022-07-11T15:34:16;34.10;99.90
21244;DHT22;10780;50.942;4.028;2022-07-11T15:36:47;35.10;99.90
21244;DHT22;10780;50.942;4.028;2022-07-11T15:39:13;35.60;99.90
21244;DHT22;10780;50.942;4.028;2022-07-11T15:41:38;35.50;99.90
21244;DHT22;10780;50.942;4.028;2022-07-11T15:44:04;34.50;99.90
21244;DHT22;10780;50.942;4.028;2022-07-11T15:46:30;34.60;99.90
21244;DHT22;10780;50.942;4.028;2022-07-11T15:48:55;34.30;99.90
21244;DHT22;10780;50.942;4.028;2022-07-11T15:51:21;35.10;99.90
21244;DHT22;10780;50.942;4.028;2022-07-11T15:53:47;35.80;99.90
21244;DHT22;10780;50.942;4.028;2022-07-11T15:56:12;35.90;99.90
21244;DHT22;10780;50.942;4.028;2022-07-11T15:58:38;36.20;99.90
21244;DHT22;10780;50.942;4.028;2022-07-11T16:01:03;36.80;99.90
21244;DHT22;10780;50.942;4.028;2022-07-11T16:03:30;38.00;99.90
21244;DHT22;10780;50.942;4.028;2022-07-11T16:05:56;37.40;99.90
21244;DHT22;10780;50.942;4.028;2022-07-11T16:08:22;37.30;99.90